createdAt,value
2022-08-03T00:00:40.304Z,99294.41
2022-08-03T00:03:09.016Z,99287.34
2022-08-03T00:05:37.971Z,99287.91
2022-08-03T00:08:06.639Z,99287.56
2022-08-03T00:10:35.505Z,99281.81
2022-08-03T00:13:05.635Z,99283.84
2022-08-03T00:15:34.511Z,99281.47
2022-08-03T00:18:03.043Z,99281.09
2022-08-03T00:20:31.805Z,99279.22
2022-08-03T00:23:00.635Z,99282.66
2022-08-03T00:25:29.382Z,99274.53
2022-08-03T00:27:57.994Z,99269.03
2022-08-03T00:30:30.763Z,99270.09
2022-08-03T00:33:00.637Z,99272.00
2022-08-03T00:35:37.157Z,99274.66
2022-08-03T00:38:18.068Z,99270.44
2022-08-03T00:40:46.919Z,99269.66
2022-08-03T00:43:15.546Z,99272.59
2022-08-03T00:45:45.807Z,99265.53
2022-08-03T00:48:23.311Z,99268.91
2022-08-03T00:51:02.358Z,99265.53
2022-08-03T00:53:31.361Z,99264.00
2022-08-03T00:56:00.425Z,99259.81
2022-08-03T00:58:29.119Z,99268.38
2022-08-03T01:00:59.352Z,99263.41
2022-08-03T01:03:28.031Z,99264.75
2022-08-03T01:06:01.689Z,99260.31
2022-08-03T01:08:49.554Z,99259.88
2022-08-03T01:11:25.207Z,99259.47
2022-08-03T01:14:18.874Z,99257.66
2022-08-03T01:16:56.851Z,99250.59
2022-08-03T01:19:42.757Z,99257.56
2022-08-03T01:22:27.002Z,99250.69
2022-08-03T01:25:04.217Z,99253.28
2022-08-03T01:27:48.194Z,99253.63
2022-08-03T01:30:18.548Z,99255.97
2022-08-03T01:33:01.131Z,99245.72
2022-08-03T01:35:36.729Z,99249.69
2022-08-03T01:38:12.652Z,99247.59
2022-08-03T01:40:44.613Z,99245.28
2022-08-03T01:43:55.200Z,99241.59
2022-08-03T01:46:09.808Z,99239.34
2022-08-03T01:48:40.900Z,99244.69
2022-08-03T01:51:11.038Z,99240.56
2022-08-03T01:53:43.748Z,99239.88
2022-08-03T01:56:14.480Z,99235.50
2022-08-03T01:58:45.433Z,99241.75
2022-08-03T02:01:17.785Z,99238.31
2022-08-03T02:04:00.510Z,99230.16
2022-08-03T02:07:01.831Z,99235.66
2022-08-03T02:09:24.663Z,99232.31
2022-08-03T02:11:54.747Z,99233.50
2022-08-03T02:14:24.538Z,99228.69
2022-08-03T02:16:56.486Z,99228.78
2022-08-03T02:19:30.320Z,99232.28
2022-08-03T02:22:02.044Z,99230.59
2022-08-03T02:24:32.873Z,99231.25
2022-08-03T02:27:04.943Z,99236.44
2022-08-03T02:29:38.854Z,99226.09
2022-08-03T02:32:15.867Z,99229.22
2022-08-03T02:34:48.637Z,99232.09
2022-08-03T02:37:19.997Z,99233.28
2022-08-03T02:39:52.063Z,99231.91
2022-08-03T02:42:24.287Z,99229.13
2022-08-03T02:44:56.429Z,99233.44
2022-08-03T02:47:54.515Z,99229.63
2022-08-03T02:50:20.992Z,99229.69
2022-08-03T02:52:50.787Z,99228.75
2022-08-03T02:55:21.202Z,99225.16
2022-08-03T02:57:51.247Z,99232.09
2022-08-03T03:00:27.573Z,99230.66
2022-08-03T03:03:00.937Z,99225.06
2022-08-03T03:05:55.278Z,99229.28
2022-08-03T03:08:26.269Z,99223.88
2022-08-03T03:10:59.320Z,99226.47
2022-08-03T03:13:29.652Z,99225.59
2022-08-03T03:16:01.024Z,99221.28
2022-08-03T03:18:32.609Z,99225.06
2022-08-03T03:21:02.593Z,99223.53
2022-08-03T03:23:32.584Z,99230.91
2022-08-03T03:26:03.447Z,99225.59
2022-08-03T03:28:33.498Z,99225.41
2022-08-03T03:31:02.424Z,99229.88
2022-08-03T03:33:32.502Z,99226.19
2022-08-03T03:36:01.661Z,99223.72
2022-08-03T03:38:30.464Z,99225.66
2022-08-03T03:40:59.549Z,99225.78
2022-08-03T03:43:29.389Z,99227.47
2022-08-03T03:45:59.737Z,99231.09
2022-08-03T03:48:29.055Z,99228.44
2022-08-03T03:51:02.597Z,99223.25
2022-08-03T03:53:31.314Z,99230.47
2022-08-03T03:56:02.548Z,99230.41
2022-08-03T03:58:33.139Z,99231.44
2022-08-03T04:01:02.495Z,99220.59
2022-08-03T04:03:31.259Z,99222.41
2022-08-03T04:06:17.981Z,99225.16
2022-08-03T04:09:14.034Z,99232.09
2022-08-03T04:11:48.612Z,99230.56
2022-08-03T04:14:20.808Z,99232.44
2022-08-03T04:16:53.343Z,99229.91
2022-08-03T04:19:28.406Z,99229.69
2022-08-03T04:22:01.310Z,99234.94
2022-08-03T04:24:35.013Z,99230.13
2022-08-03T04:27:07.682Z,99231.94
2022-08-03T04:29:44.762Z,99230.06
2022-08-03T04:32:18.587Z,99231.19
2022-08-03T04:34:48.038Z,99228.44
2022-08-03T04:37:25.594Z,99231.94
2022-08-03T04:39:59.693Z,99229.03
2022-08-03T04:42:28.899Z,99233.06
2022-08-03T04:45:01.374Z,99238.91
2022-08-03T04:47:33.751Z,99234.28
2022-08-03T04:50:03.178Z,99236.78
2022-08-03T04:52:32.520Z,99239.00
2022-08-03T04:55:02.997Z,99242.25
2022-08-03T04:57:31.593Z,99244.03
2022-08-03T05:00:02.938Z,99242.91
2022-08-03T05:02:33.706Z,99247.88
2022-08-03T05:05:02.292Z,99250.94
2022-08-03T05:07:35.473Z,99245.56
2022-08-03T05:10:14.757Z,99237.28
2022-08-03T05:12:46.224Z,99252.63
2022-08-03T05:15:15.192Z,99246.66
2022-08-03T05:17:43.886Z,99250.34
2022-08-03T05:20:13.434Z,99241.88
2022-08-03T05:22:45.190Z,99250.38
2022-08-03T05:25:17.766Z,99242.84
2022-08-03T05:27:49.284Z,99246.66
2022-08-03T05:30:31.392Z,99244.28
2022-08-03T05:33:03.853Z,99234.44
2022-08-03T05:36:02.769Z,99238.25
2022-08-03T05:38:34.358Z,99232.75
2022-08-03T05:41:22.724Z,99237.84
2022-08-03T05:43:53.694Z,99238.06
2022-08-03T05:46:23.051Z,99241.94
2022-08-03T05:48:51.789Z,99233.72
2022-08-03T05:51:20.425Z,99238.00
2022-08-03T05:53:49.065Z,99229.53
2022-08-03T05:56:23.488Z,99230.19
2022-08-03T05:58:52.419Z,99245.84
2022-08-03T06:01:22.820Z,99232.34
2022-08-03T06:03:52.100Z,99233.34
2022-08-03T06:06:21.189Z,99236.41
2022-08-03T06:08:49.799Z,99230.19
2022-08-03T06:11:19.846Z,99230.47
2022-08-03T06:13:48.492Z,99241.72
2022-08-03T06:16:17.110Z,99237.53
2022-08-03T06:18:46.028Z,99233.44
2022-08-03T06:21:16.391Z,99234.34
2022-08-03T06:23:54.397Z,99234.19
2022-08-03T06:26:29.059Z,99232.94
2022-08-03T06:28:58.206Z,99243.50
2022-08-03T06:31:33.018Z,99236.00
2022-08-03T06:34:33.671Z,99237.91
2022-08-03T06:36:58.616Z,99229.81
2022-08-03T06:39:31.221Z,99235.72
2022-08-03T06:42:01.337Z,99241.19
2022-08-03T06:44:30.023Z,99243.56
2022-08-03T06:46:58.663Z,99240.16
2022-08-03T06:49:28.138Z,99242.72
2022-08-03T06:52:04.955Z,99246.66
2022-08-03T06:54:39.985Z,99246.94
2022-08-03T06:57:11.680Z,99245.56
2022-08-03T07:00:06.415Z,99240.34
2022-08-03T07:02:29.360Z,99243.78
2022-08-03T07:04:58.708Z,99247.13
2022-08-03T07:07:27.326Z,99250.72
2022-08-03T07:09:57.775Z,99253.75
2022-08-03T07:12:29.688Z,99249.53
2022-08-03T07:15:01.704Z,99253.63
2022-08-03T07:17:33.362Z,99254.63
2022-08-03T07:20:03.729Z,99250.84
2022-08-03T07:22:32.323Z,99247.22
2022-08-03T07:25:01.311Z,99251.44
2022-08-03T07:27:32.304Z,99251.06
2022-08-03T07:30:01.116Z,99254.38
2022-08-03T07:32:31.480Z,99259.78
2022-08-03T07:35:01.464Z,99252.56
2022-08-03T07:37:31.444Z,99256.44
2022-08-03T07:40:00.534Z,99256.88
2022-08-03T07:42:31.590Z,99255.47
2022-08-03T07:45:00.767Z,99266.72
2022-08-03T07:47:34.977Z,99266.53
2022-08-03T07:50:08.769Z,99268.53
2022-08-03T07:52:50.593Z,99265.94
2022-08-03T07:55:21.490Z,99268.72
2022-08-03T07:58:01.191Z,99267.13
2022-08-03T08:00:30.138Z,99262.19
2022-08-03T08:02:58.915Z,99264.13
2022-08-03T08:05:28.384Z,99263.78
2022-08-03T08:07:56.945Z,99268.88
2022-08-03T08:10:25.722Z,99264.63
2022-08-03T08:12:56.538Z,99265.88
2022-08-03T08:15:25.882Z,99257.66
2022-08-03T08:17:56.130Z,99277.41
2022-08-03T08:20:30.855Z,99263.28
2022-08-03T08:23:02.925Z,99271.34
2022-08-03T08:25:33.497Z,99265.44
2022-08-03T08:28:31.803Z,99262.06
2022-08-03T08:30:53.050Z,99270.97
2022-08-03T08:33:23.317Z,99268.28
2022-08-03T08:35:54.062Z,99259.97
2022-08-03T08:38:23.286Z,99261.69
2022-08-03T08:40:52.144Z,99254.84
2022-08-03T08:43:22.090Z,99257.88
2022-08-03T08:45:51.736Z,99261.53
2022-08-03T08:48:25.599Z,99261.81
2022-08-03T08:50:55.548Z,99263.31
2022-08-03T08:53:27.815Z,99268.09
2022-08-03T08:56:00.865Z,99261.34
2022-08-03T08:58:38.680Z,99271.81
2022-08-03T09:01:07.878Z,99273.84
2022-08-03T09:03:36.899Z,99260.94
2022-08-03T09:06:06.783Z,99268.38
2022-08-03T09:08:35.687Z,99265.13
2022-08-03T09:11:04.400Z,99267.63
2022-08-03T09:13:34.571Z,99266.03
2022-08-03T09:16:14.612Z,99277.00
2022-08-03T09:18:44.294Z,99280.16
2022-08-03T09:21:34.196Z,99280.34
2022-08-03T09:24:06.311Z,99273.19
2022-08-03T09:26:37.114Z,99274.38
2022-08-03T09:29:14.798Z,99274.97
2022-08-03T09:31:46.418Z,99276.63
2022-08-03T09:34:18.282Z,99279.06
2022-08-03T09:36:48.929Z,99277.47
2022-08-03T09:39:19.431Z,99284.06
2022-08-03T09:41:50.100Z,99275.06
2022-08-03T09:44:34.708Z,99269.25
2022-08-03T09:47:03.700Z,99274.59
2022-08-03T09:49:32.616Z,99273.44
2022-08-03T09:52:38.239Z,99269.34
2022-08-03T09:55:02.408Z,99258.09
2022-08-03T09:57:31.882Z,99268.91
2022-08-03T10:00:12.075Z,99261.59
2022-08-03T10:02:45.726Z,99261.69
2022-08-03T10:05:19.805Z,99264.84
2022-08-03T10:07:51.042Z,99264.50
2022-08-03T10:10:30.467Z,99262.47
2022-08-03T10:13:01.336Z,99262.66
2022-08-03T10:16:23.842Z,99251.97
2022-08-03T10:18:20.199Z,99258.25
2022-08-03T10:20:53.459Z,99250.25
2022-08-03T10:23:24.963Z,99250.88
2022-08-03T10:25:58.368Z,99246.22
2022-08-03T10:28:33.415Z,99244.28
2022-08-03T10:31:07.650Z,99250.41
2022-08-03T10:33:50.232Z,99251.28
2022-08-03T10:36:25.236Z,99244.66
2022-08-03T10:38:55.171Z,99243.47
2022-08-03T10:41:29.951Z,99242.00
2022-08-03T10:44:03.915Z,99233.19
2022-08-03T10:46:35.558Z,99229.44
2022-08-03T10:49:05.273Z,99234.25
2022-08-03T10:51:34.609Z,99230.22
2022-08-03T10:54:03.532Z,99230.00
2022-08-03T10:56:58.621Z,99238.19
2022-08-03T11:00:07.413Z,99231.25
2022-08-03T11:03:10.053Z,99224.97
2022-08-03T11:05:41.962Z,99222.22
2022-08-03T11:08:26.818Z,99217.59
2022-08-03T11:10:57.513Z,99218.50
2022-08-03T11:13:28.348Z,99227.81
2022-08-03T11:16:01.606Z,99221.81
2022-08-03T11:18:33.223Z,99216.50
2022-08-03T11:21:02.080Z,99221.38
2022-08-03T11:24:04.233Z,99213.16
2022-08-03T11:26:35.134Z,99214.16
2022-08-03T11:29:28.939Z,99211.75
2022-08-03T11:31:57.704Z,99220.47
2022-08-03T11:34:27.859Z,99223.88
2022-08-03T11:37:23.693Z,99207.34
2022-08-03T11:39:56.955Z,99210.97
2022-08-03T11:42:40.465Z,99212.63
2022-08-03T11:45:11.005Z,99206.56
2022-08-03T11:47:50.498Z,99206.81
2022-08-03T11:50:22.527Z,99206.53
2022-08-03T11:52:51.912Z,99207.78
2022-08-03T11:55:22.717Z,99205.09
2022-08-03T11:59:17.904Z,99202.88
2022-08-03T12:00:42.050Z,99199.22
2022-08-03T12:03:13.801Z,99191.19
2022-08-03T12:05:51.151Z,99195.69
2022-08-03T12:08:32.617Z,99206.41
2022-08-03T12:11:03.178Z,99193.16
2022-08-03T12:14:45.351Z,99202.16
2022-08-03T12:16:29.648Z,99198.84
2022-08-03T12:19:03.692Z,99198.16
2022-08-03T12:21:33.853Z,99180.53
2022-08-03T12:24:04.327Z,99191.41
2022-08-03T12:26:58.323Z,99190.63
2022-08-03T12:29:28.946Z,99193.25
2022-08-03T12:31:58.135Z,99191.88
2022-08-03T12:34:47.334Z,99187.09
2022-08-03T12:37:22.677Z,99188.69
2022-08-03T12:40:02.347Z,99191.72
2022-08-03T12:42:35.655Z,99178.38
2022-08-03T12:45:25.594Z,99186.84
2022-08-03T12:47:56.508Z,99174.09
2022-08-03T12:50:27.084Z,99187.22
2022-08-03T12:52:56.426Z,99180.41
2022-08-03T12:55:27.607Z,99186.31
2022-08-03T12:57:56.262Z,99186.91
2022-08-03T13:00:29.359Z,99174.66
2022-08-03T13:05:57.382Z,99172.88
2022-08-03T13:08:26.871Z,99177.13
2022-08-03T13:10:55.686Z,99177.22
2022-08-03T13:13:40.301Z,99178.53
2022-08-03T13:16:10.317Z,99169.38
2022-08-03T13:18:38.899Z,99165.81
2022-08-03T13:21:09.984Z,99165.06
2022-08-03T13:23:38.569Z,99164.25
2022-08-03T13:26:07.271Z,99162.66
2022-08-03T13:28:36.010Z,99159.09
2022-08-03T13:31:11.055Z,99137.28
2022-08-03T13:33:44.902Z,99169.91
2022-08-03T13:36:18.789Z,99150.53
2022-08-03T13:38:57.443Z,99135.28
2022-08-03T13:41:32.333Z,99152.75
2022-08-03T13:44:26.634Z,99155.81
2022-08-03T13:46:52.241Z,99146.16
2022-08-03T13:49:23.271Z,99153.16
2022-08-03T13:52:02.235Z,99130.91
2022-08-03T13:54:31.325Z,99120.78
2022-08-03T13:58:04.731Z,99122.78
2022-08-03T13:59:54.892Z,99137.44
2022-08-03T14:02:25.115Z,99134.41
2022-08-03T14:04:54.668Z,99130.16
2022-08-03T14:07:23.197Z,99125.69
2022-08-03T14:09:51.752Z,99131.06
2022-08-03T14:12:20.402Z,99123.34
2022-08-03T14:14:49.000Z,99111.94
2022-08-03T14:17:18.475Z,99115.75
2022-08-03T14:19:53.353Z,99099.94
2022-08-03T14:22:22.783Z,99103.28
2022-08-03T14:24:51.354Z,99104.59
2022-08-03T14:27:20.326Z,99102.41
2022-08-03T14:29:48.999Z,99099.66
2022-08-03T14:32:17.672Z,99085.53
2022-08-03T14:34:46.290Z,99086.75
2022-08-03T14:37:16.431Z,99083.59
2022-08-03T14:40:02.394Z,99090.47
2022-08-03T14:42:31.889Z,99083.75
2022-08-03T14:45:04.611Z,99080.84
2022-08-03T14:50:24.350Z,99079.28
2022-08-03T14:50:36.559Z,99072.53
2022-08-03T14:53:11.096Z,99078.69
2022-08-03T14:55:50.813Z,99081.41
2022-08-03T14:58:21.871Z,99077.81
2022-08-03T15:00:52.445Z,99069.16
2022-08-03T15:03:24.947Z,99078.38
2022-08-03T15:05:54.930Z,99072.78
2022-08-03T15:08:26.559Z,99075.97
2022-08-03T15:10:55.702Z,99073.38
2022-08-03T15:13:25.299Z,99064.09
2022-08-03T15:15:53.922Z,99058.00
2022-08-03T15:18:22.683Z,99067.94
2022-08-03T15:20:51.314Z,99064.16
2022-08-03T15:23:20.097Z,99057.66
2022-08-03T15:26:03.703Z,99057.03
2022-08-03T15:28:41.109Z,99058.66
2022-08-03T15:31:09.725Z,99057.59
2022-08-03T15:33:38.531Z,99053.59
2022-08-03T15:36:07.891Z,99050.78
2022-08-03T15:38:36.501Z,99051.84
2022-08-03T15:41:13.485Z,99052.75
2022-08-03T15:43:42.668Z,99048.06
2022-08-03T15:46:29.271Z,99040.94
2022-08-03T15:48:58.409Z,99035.72
2022-08-03T15:51:27.051Z,99045.44
2022-08-03T15:53:56.189Z,99038.66
2022-08-03T15:56:27.135Z,99042.41
2022-08-03T15:59:09.687Z,99034.16
2022-08-03T16:01:42.395Z,99033.13
2022-08-03T16:04:11.092Z,99029.19
2022-08-03T16:06:39.714Z,99036.06
2022-08-03T16:09:23.918Z,99029.16
2022-08-03T16:11:59.108Z,99034.41
2022-08-03T16:14:34.434Z,99021.72
2022-08-03T16:17:06.789Z,99025.69
2022-08-03T16:19:35.507Z,99018.16
2022-08-03T16:22:04.536Z,99018.66
2022-08-03T16:24:33.400Z,99018.56
2022-08-03T16:27:03.388Z,99011.03
2022-08-03T16:29:32.048Z,99008.97
2022-08-03T16:32:09.352Z,99014.78
2022-08-03T16:34:39.278Z,99014.34
2022-08-03T16:37:36.482Z,99012.16
2022-08-03T16:39:58.422Z,99012.16
2022-08-03T16:42:28.672Z,99011.59
2022-08-03T16:44:57.616Z,99001.84
2022-08-03T16:47:26.699Z,99012.25
2022-08-03T16:49:56.783Z,99005.88
2022-08-03T16:52:25.956Z,99008.69
2022-08-03T16:54:54.880Z,99013.22
2022-08-03T16:57:56.427Z,99007.09
2022-08-03T17:00:33.288Z,99009.00
2022-08-03T17:03:12.486Z,99010.88
2022-08-03T17:05:49.498Z,99016.50
2022-08-03T17:08:26.857Z,99010.59
2022-08-03T17:10:56.691Z,99016.84
2022-08-03T17:13:39.417Z,99003.41
2022-08-03T17:16:12.154Z,99006.47
2022-08-03T17:18:52.435Z,99010.19
2022-08-03T17:21:29.318Z,99009.47
2022-08-03T17:24:04.784Z,99015.50
2022-08-03T17:26:44.816Z,99012.34
2022-08-03T17:29:16.703Z,99009.88
2022-08-03T17:31:49.763Z,99013.81
2022-08-03T17:34:19.328Z,99014.66
2022-08-03T17:37:05.765Z,99006.19
2022-08-03T17:39:58.100Z,99011.31
2022-08-03T17:42:30.343Z,99009.09
2022-08-03T17:45:02.447Z,99002.13
2022-08-03T17:47:42.529Z,99003.38
2022-08-03T17:50:23.930Z,99007.72
2022-08-03T17:53:07.873Z,99013.03
2022-08-03T17:55:58.919Z,99008.47
2022-08-03T17:58:52.407Z,99010.88
2022-08-03T18:02:02.788Z,99014.59
2022-08-03T18:04:40.593Z,99015.97
2022-08-03T18:07:12.887Z,99018.06
2022-08-03T18:10:04.808Z,99024.53
2022-08-03T18:12:52.029Z,99022.53
2022-08-03T18:15:27.685Z,99018.97
2022-08-03T18:18:03.411Z,99023.53
2022-08-03T18:20:42.647Z,99013.69
2022-08-03T18:23:25.106Z,99013.03
2022-08-03T18:26:06.760Z,99015.41
2022-08-03T18:28:38.415Z,99013.03
2022-08-03T18:31:07.791Z,99013.34
2022-08-03T18:34:17.380Z,99014.88
2022-08-03T18:36:31.933Z,99018.44
2022-08-03T18:39:03.879Z,99005.66
2022-08-03T18:41:34.605Z,99014.28
2022-08-03T18:44:08.185Z,99017.63
2022-08-03T18:46:54.910Z,99020.97
2022-08-03T18:49:36.087Z,99017.81
2022-08-03T18:52:15.824Z,99014.00
2022-08-03T18:55:01.091Z,99014.63
2022-08-03T18:57:40.356Z,99012.69
2022-08-03T19:00:14.103Z,99017.69
2022-08-03T19:02:49.751Z,99009.53
2022-08-03T19:05:21.619Z,99020.75
2022-08-03T19:07:59.915Z,99018.25
2022-08-03T19:10:34.147Z,99025.38
2022-08-03T19:13:11.309Z,99022.16
2022-08-03T19:15:51.255Z,99035.50
2022-08-03T19:18:22.292Z,99030.06
2022-08-03T19:20:54.652Z,99031.41
2022-08-03T19:26:29.916Z,99023.69
2022-08-03T19:29:03.527Z,99040.94
2022-08-03T19:31:34.910Z,99043.25
2022-08-03T19:34:04.220Z,99042.84
2022-08-03T19:36:40.374Z,99035.47
2022-08-03T19:39:10.832Z,99054.81
2022-08-03T19:41:42.348Z,99046.00
2022-08-03T19:44:20.115Z,99040.19
2022-08-03T19:46:55.137Z,99045.84
2022-08-03T19:50:04.698Z,99043.56
2022-08-03T19:52:24.452Z,99043.69
2022-08-03T19:55:04.323Z,99049.16
2022-08-03T19:57:34.790Z,99045.59
2022-08-03T20:00:06.256Z,99047.13
2022-08-03T20:02:35.741Z,99044.41
2022-08-03T20:05:04.834Z,99049.63
2022-08-03T20:07:48.182Z,99053.28
2022-08-03T20:10:19.906Z,99048.81
2022-08-03T20:12:50.021Z,99051.59
2022-08-03T20:15:31.205Z,99053.22
2022-08-03T20:18:01.090Z,99042.44
2022-08-03T20:20:31.601Z,99042.94
2022-08-03T20:25:59.136Z,99049.66
2022-08-03T20:28:50.519Z,99045.19
2022-08-03T20:31:32.093Z,99048.53
2022-08-03T20:34:05.250Z,99046.94
2022-08-03T20:36:34.187Z,99045.72
2022-08-03T20:39:07.810Z,99050.66
2022-08-03T20:41:39.031Z,99051.56
2022-08-03T20:44:07.999Z,99038.75
2022-08-03T20:46:53.124Z,99049.03
2022-08-03T20:49:27.342Z,99053.69
2022-08-03T20:51:56.163Z,99043.69
2022-08-03T20:54:30.826Z,99047.84
2022-08-03T20:57:03.788Z,99052.03
2022-08-03T20:59:50.109Z,99053.53
2022-08-03T21:02:29.563Z,99055.88
2022-08-03T21:05:03.255Z,99050.97
2022-08-03T21:08:05.438Z,99051.38
2022-08-03T21:10:32.298Z,99054.28
2022-08-03T21:13:02.097Z,99031.88
2022-08-03T21:13:03.879Z,99047.28
2022-08-03T21:16:11.742Z,99048.69
2022-08-03T21:18:46.336Z,99046.69
2022-08-03T21:21:17.023Z,99035.00
2022-08-03T21:23:49.546Z,99032.19
2022-08-03T21:26:20.000Z,99047.91
2022-08-03T21:28:51.474Z,99041.09
2022-08-03T21:31:25.226Z,99043.75
2022-08-03T21:33:56.729Z,99039.59
2022-08-03T21:36:27.648Z,99034.00
2022-08-03T21:38:57.453Z,99036.56
2022-08-03T21:41:27.398Z,99028.50
2022-08-03T21:43:58.008Z,99028.88
2022-08-03T21:46:28.259Z,99029.22
2022-08-03T21:50:05.758Z,99031.81
2022-08-03T21:51:53.764Z,99033.34
2022-08-03T21:54:24.996Z,99033.06
2022-08-03T21:56:55.864Z,99024.88
2022-08-03T21:59:26.735Z,99024.25
2022-08-03T22:01:58.611Z,99031.69
2022-08-03T22:04:42.700Z,99030.22
2022-08-03T22:07:18.325Z,99033.97
2022-08-03T22:09:50.949Z,99031.53
2022-08-03T22:12:23.676Z,99028.22
2022-08-03T22:15:00.534Z,99031.50
2022-08-03T22:17:56.334Z,99034.75
2022-08-03T22:20:21.640Z,99030.72
2022-08-03T22:22:56.463Z,99032.28
2022-08-03T22:25:30.486Z,99024.78
2022-08-03T22:28:01.620Z,99031.66
2022-08-03T22:30:34.203Z,99030.50
2022-08-03T22:33:05.169Z,99032.34
2022-08-03T22:35:46.436Z,99029.91
2022-08-03T22:38:17.552Z,99033.63
2022-08-03T22:40:48.052Z,99030.75
2022-08-03T22:43:17.275Z,99036.31
2022-08-03T22:46:09.023Z,99034.72
2022-08-03T22:48:41.410Z,99029.59
2022-08-03T22:51:11.348Z,99035.16
2022-08-03T22:53:41.542Z,99026.00
2022-08-03T22:56:10.908Z,99024.72
2022-08-03T22:58:39.522Z,99028.47
2022-08-03T23:01:11.480Z,99018.22
2022-08-03T23:03:58.703Z,99024.53
2022-08-03T23:06:35.545Z,99025.72
2022-08-03T23:09:07.967Z,99021.16
2022-08-03T23:11:42.815Z,99019.00
2022-08-03T23:14:17.164Z,99020.50
2022-08-03T23:16:48.681Z,99018.91
2022-08-03T23:19:24.978Z,99020.84
2022-08-03T23:22:03.599Z,99025.25
2022-08-03T23:24:36.040Z,99020.75
2022-08-03T23:27:05.543Z,99024.59
2022-08-03T23:29:36.023Z,99014.28
2022-08-03T23:32:07.196Z,99017.28
2022-08-03T23:34:56.970Z,99019.66
2022-08-03T23:37:26.850Z,99020.84
2022-08-03T23:39:58.129Z,99021.03
2022-08-03T23:42:27.283Z,99024.69
2022-08-03T23:45:05.841Z,99019.75
2022-08-03T23:47:46.667Z,99029.38
2022-08-03T23:50:16.035Z,99027.88
2022-08-03T23:52:56.180Z,99015.69
2022-08-03T23:55:41.419Z,99009.16
2022-08-03T23:58:20.309Z,99015.69
